Stone Cabin, Nevada Weather observations

Data are for observation ending at time listed.
 Day   Time    Ave.   Ave.  Ave.  Vector   Max.   Stn.    Total    Solar   Ave.  
  of    of     Air    Rel.  Wind   Wind    Wind   Baro.  Precip.   Rad.    Soil  
Year   Day     Temp.  Hum.  Speed  Dir.    Gust   Pres.                    Temp. 
2015   (PST)    F      %     mph   deg.    mph     mb.     in.     W/m2     F   
------------------------------------------------------------------------------
  60    4:00   29.0    91    1.1   349      3.4    816     0.00       0    37.2
  60    5:00   27.7    92    1.0   351      2.4    817     0.00       0    37.0
  60    6:00   26.6    92    0.8   100      3.4    817     0.00       0    36.7
  60    7:00   24.2    93    0.6   308      4.4    818     0.00       8    36.4
  60    8:00   25.9    92    1.3   327      3.0    819     0.00      74    36.1
  60    9:00   34.5    77    1.7    23      6.1    819     0.00     331    36.3
  60   10:00   38.3    64    2.6    87      5.6    819     0.00     473    38.1
  60   11:00   41.6    56    4.1   100      9.5    819     0.00     815    40.6
  60   12:00   43.5    45    4.2   117      9.0    819     0.00     900    44.1
  60   13:00   43.5    43    4.9    87     12.0    818     0.00     688    46.2
  60   14:00   42.1    46    5.3    84     11.8    817     0.00     320    45.9
  60   15:00   39.0    62    8.2   105     15.1    818     0.00     354    45.2
  60   16:00   39.8    56    5.6    72     13.0    817     0.00     385    44.5
  60   17:00   39.7    53    4.3    89      9.1    817     0.00     148    44.0
  60   18:00   37.0    60    2.4    67      7.2    817     0.00      13    43.1
  60   19:00   36.0    70    2.4    94      5.8    818     0.00       0    41.9
  60   20:00   34.0    84    3.5    82      7.7    817     0.00       0    41.2
  60   21:00   34.3    81    3.8   109      6.3    817     0.00       0    40.7
  60   22:00   32.9    89    1.4   103      4.5    818     0.00       0    40.3
  60   23:00   32.1    92    1.1    10      3.4    817     0.00       0    39.9
  61    0:00   31.9    93    0.6     5      2.7    816     0.00       0    39.6
  61    1:00   31.7    93    0.4   347      2.3    815     0.00       0    39.4
  61    2:00   31.5    93    0.3   348      2.5    814     0.00       0    39.2
  61    3:00   31.0    94    0.6   358      2.3    814     0.00       0    39.1

Return to Stone Cabin, Nevada graphs page.


Western Regional Climate Center,wrcc@dri.edu